createdAt,value
2022-10-26T00:00:16.845Z,5.22
2022-10-26T00:02:43.527Z,5.25
2022-10-26T00:05:10.276Z,6.30
2022-10-26T00:07:36.897Z,5.05
2022-10-26T00:10:03.825Z,5.30
2022-10-26T00:12:31.024Z,4.68
2022-10-26T00:14:57.606Z,5.43
2022-10-26T00:17:24.233Z,5.53
2022-10-26T00:19:50.852Z,6.03
2022-10-26T00:22:17.471Z,5.05
2022-10-26T00:24:44.066Z,6.13
2022-10-26T00:27:10.693Z,7.20
2022-10-26T00:29:37.300Z,4.68
2022-10-26T00:32:03.955Z,4.93
2022-10-26T00:34:30.550Z,4.13
2022-10-26T00:36:57.260Z,5.03
2022-10-26T00:39:23.958Z,5.30
2022-10-26T00:41:50.734Z,5.63
2022-10-26T00:44:48.245Z,5.07
2022-10-26T00:47:16.750Z,5.30
2022-10-26T00:49:46.621Z,4.47
2022-10-26T00:52:15.128Z,5.15
2022-10-26T00:54:41.894Z,4.57
2022-10-26T00:57:08.648Z,6.07
2022-10-26T00:59:35.256Z,6.82
2022-10-26T01:02:02.958Z,4.90
2022-10-26T01:04:29.857Z,5.93
2022-10-26T01:06:56.851Z,5.40
2022-10-26T01:09:24.705Z,5.15
2022-10-26T01:11:51.305Z,6.72
2022-10-26T01:14:19.856Z,5.70
2022-10-26T01:17:25.090Z,5.10
2022-10-26T01:20:25.355Z,5.43
2022-10-26T01:23:03.734Z,6.13
2022-10-26T01:26:12.757Z,6.55
2022-10-26T01:29:04.686Z,6.53
2022-10-26T01:31:42.014Z,6.60
2022-10-26T01:34:34.668Z,6.47
2022-10-26T01:37:20.211Z,6.20
2022-10-26T01:39:54.827Z,3.42
2022-10-26T01:42:23.815Z,3.35
2022-10-26T01:44:57.630Z,3.47
2022-10-26T01:47:26.102Z,3.30
2022-10-26T01:49:56.550Z,4.70
2022-10-26T01:52:23.731Z,3.97
2022-10-26T01:54:50.479Z,3.30
2022-10-26T01:57:20.207Z,3.67
2022-10-26T01:59:58.830Z,3.40
2022-10-26T02:02:39.166Z,5.05
2022-10-26T02:05:36.976Z,4.38
2022-10-26T02:08:06.568Z,4.72
2022-10-26T02:10:38.996Z,8.23
2022-10-26T02:13:14.481Z,5.75
2022-10-26T02:15:51.034Z,5.72
2022-10-26T02:18:28.583Z,5.47
2022-10-26T02:20:59.190Z,3.42
2022-10-26T02:23:27.477Z,4.07
2022-10-26T02:25:58.708Z,4.55
2022-10-26T02:28:31.172Z,3.60
2022-10-26T02:31:00.856Z,4.70
2022-10-26T02:33:30.847Z,5.68
2022-10-26T02:36:00.447Z,4.50
2022-10-26T02:38:32.401Z,3.33
2022-10-26T02:41:02.953Z,5.22
2022-10-26T02:43:32.820Z,6.60
2022-10-26T02:46:21.601Z,5.72
2022-10-26T02:48:48.599Z,5.55
2022-10-26T02:51:25.063Z,4.65
2022-10-26T02:53:54.497Z,3.47
2022-10-26T02:56:28.190Z,3.70
2022-10-26T02:58:59.560Z,5.45
2022-10-26T03:01:28.470Z,4.90
2022-10-26T03:03:59.403Z,5.63
2022-10-26T03:06:26.775Z,6.15
2022-10-26T03:08:53.595Z,6.28
2022-10-26T03:11:20.257Z,5.72
2022-10-26T03:13:46.878Z,4.50
2022-10-26T03:16:13.472Z,4.78
2022-10-26T03:18:40.191Z,3.78
2022-10-26T03:21:06.880Z,4.88
2022-10-26T03:23:33.503Z,5.78
2022-10-26T03:26:00.270Z,4.63
2022-10-26T03:28:27.009Z,4.00
2022-10-26T03:30:53.674Z,3.40
2022-10-26T03:33:23.211Z,3.30
2022-10-26T03:35:56.736Z,3.20
2022-10-26T03:38:24.024Z,3.72
2022-10-26T03:40:50.880Z,4.55
2022-10-26T03:43:17.958Z,4.50
2022-10-26T03:45:44.667Z,4.65
2022-10-26T03:48:11.433Z,4.03
2022-10-26T03:50:38.033Z,3.15
2022-10-26T03:53:07.550Z,3.38
2022-10-26T03:55:34.326Z,2.67
2022-10-26T03:58:00.948Z,3.08
2022-10-26T04:00:27.568Z,5.70
2022-10-26T04:02:56.394Z,4.85
2022-10-26T04:05:24.073Z,3.55
2022-10-26T04:07:55.536Z,2.90
2022-10-26T04:10:23.277Z,3.83
2022-10-26T04:12:49.944Z,3.58
2022-10-26T04:15:17.593Z,3.63
2022-10-26T04:17:44.229Z,4.60
2022-10-26T04:20:11.430Z,4.07
2022-10-26T04:22:38.044Z,4.00
2022-10-26T04:25:05.737Z,3.80
2022-10-26T04:27:32.599Z,3.70
2022-10-26T04:29:59.286Z,3.20
2022-10-26T04:32:25.897Z,2.78
2022-10-26T04:34:54.309Z,4.13
2022-10-26T04:37:21.083Z,3.05
2022-10-26T04:39:47.721Z,3.85
2022-10-26T04:42:14.452Z,5.00
2022-10-26T04:44:41.050Z,4.82
2022-10-26T04:47:07.661Z,4.93
2022-10-26T04:49:34.277Z,4.40
2022-10-26T04:52:00.934Z,5.05
2022-10-26T04:54:27.550Z,3.88
2022-10-26T04:56:54.984Z,3.72
2022-10-26T04:59:21.596Z,5.32
2022-10-26T05:01:48.373Z,3.15
2022-10-26T05:04:15.148Z,3.50
2022-10-26T05:06:41.777Z,3.95
2022-10-26T05:09:08.387Z,4.00
2022-10-26T05:11:35.899Z,4.50
2022-10-26T05:14:02.563Z,5.93
2022-10-26T05:16:29.160Z,3.42
2022-10-26T05:18:55.775Z,2.75
2022-10-26T05:21:22.395Z,4.45
2022-10-26T05:23:55.121Z,6.20
2022-10-26T05:26:23.583Z,4.40
2022-10-26T05:28:51.664Z,5.07
2022-10-26T05:31:18.317Z,5.50
2022-10-26T05:33:48.067Z,4.78
2022-10-26T05:36:14.668Z,3.25
2022-10-26T05:38:41.485Z,3.30
2022-10-26T05:41:08.114Z,3.80
2022-10-26T05:43:34.831Z,2.30
2022-10-26T05:46:01.440Z,3.42
2022-10-26T05:48:28.233Z,2.75
2022-10-26T05:50:54.831Z,2.20
2022-10-26T05:53:21.445Z,3.63
2022-10-26T05:55:48.406Z,3.85
2022-10-26T05:58:16.492Z,9.00
2022-10-26T06:00:53.478Z,9.20
2022-10-26T06:03:33.956Z,8.10
2022-10-26T06:06:02.682Z,5.60
2022-10-26T06:08:32.245Z,6.45
2022-10-26T06:10:59.564Z,8.85
2022-10-26T06:13:26.620Z,6.45
2022-10-26T06:16:10.310Z,12.43
2022-10-26T06:18:51.843Z,6.78
2022-10-26T06:21:43.606Z,3.67
2022-10-26T06:24:55.045Z,3.47
2022-10-26T06:27:24.579Z,3.22
2022-10-26T06:30:07.136Z,7.78
2022-10-26T06:32:34.263Z,5.32
2022-10-26T06:35:31.191Z,3.40
2022-10-26T06:38:02.368Z,2.92
2022-10-26T06:40:32.403Z,3.53
2022-10-26T06:43:00.192Z,3.03
2022-10-26T06:45:27.250Z,4.65
2022-10-26T06:48:14.535Z,6.95
2022-10-26T06:50:54.578Z,8.70
2022-10-26T06:53:32.922Z,8.88
2022-10-26T06:56:00.453Z,8.13
2022-10-26T06:58:34.959Z,4.97
2022-10-26T07:01:02.948Z,3.67
2022-10-26T07:03:29.546Z,3.67
2022-10-26T07:05:56.143Z,3.72
2022-10-26T07:08:22.783Z,3.97
2022-10-26T07:10:49.677Z,3.45
2022-10-26T07:13:16.315Z,2.88
2022-10-26T07:15:43.444Z,3.53
2022-10-26T07:18:10.171Z,3.35
2022-10-26T07:20:39.478Z,3.30
2022-10-26T07:23:07.516Z,2.90
2022-10-26T07:25:35.464Z,2.38
2022-10-26T07:28:03.010Z,2.50
2022-10-26T07:30:30.921Z,2.38
2022-10-26T07:33:10.184Z,2.83
2022-10-26T07:35:37.056Z,2.70
2022-10-26T07:38:04.434Z,2.58
2022-10-26T07:40:31.607Z,2.67
2022-10-26T07:42:59.739Z,2.20
2022-10-26T07:45:30.275Z,2.28
2022-10-26T07:47:57.257Z,2.60
2022-10-26T07:50:24.254Z,2.08
2022-10-26T07:52:51.298Z,2.50
2022-10-26T07:55:19.048Z,2.25
2022-10-26T07:57:47.588Z,2.10
2022-10-26T08:00:17.639Z,1.92
2022-10-26T08:02:44.876Z,1.95
2022-10-26T08:05:12.407Z,2.42
2022-10-26T08:07:44.588Z,2.03
2022-10-26T08:10:15.115Z,1.88
2022-10-26T08:12:43.249Z,2.20
2022-10-26T08:15:10.552Z,1.90
2022-10-26T08:17:37.235Z,2.13
2022-10-26T08:20:04.163Z,2.30
2022-10-26T08:22:30.909Z,2.40
2022-10-26T08:24:57.776Z,1.75
2022-10-26T08:27:24.385Z,2.22
2022-10-26T08:29:51.003Z,1.80
2022-10-26T08:32:17.680Z,2.15
2022-10-26T08:34:44.299Z,2.15
2022-10-26T08:37:10.926Z,1.83
2022-10-26T08:39:37.592Z,1.80
2022-10-26T08:42:22.954Z,1.90
2022-10-26T08:44:58.329Z,1.60
2022-10-26T08:47:35.599Z,1.80
2022-10-26T08:50:14.459Z,1.40
2022-10-26T08:52:49.441Z,1.58
2022-10-26T08:55:20.355Z,1.98
2022-10-26T08:57:49.199Z,1.60
2022-10-26T09:00:20.615Z,1.83
2022-10-26T09:02:54.033Z,1.98
2022-10-26T09:05:50.627Z,2.00
2022-10-26T09:08:37.471Z,2.00
2022-10-26T09:11:36.257Z,1.70
2022-10-26T09:14:26.084Z,1.90
2022-10-26T09:17:18.022Z,2.13
2022-10-26T09:20:06.986Z,1.92
2022-10-26T09:22:36.636Z,1.70
2022-10-26T09:25:19.219Z,1.60
2022-10-26T09:27:59.193Z,1.88
2022-10-26T09:30:25.966Z,1.48
2022-10-26T09:33:16.292Z,1.98
2022-10-26T09:35:49.833Z,1.92
2022-10-26T09:38:16.534Z,1.58
2022-10-26T09:40:55.787Z,1.73
2022-10-26T09:43:33.103Z,2.05
2022-10-26T09:45:59.731Z,1.90
2022-10-26T09:48:49.422Z,2.47
2022-10-26T09:51:17.484Z,2.20
2022-10-26T09:53:44.105Z,1.60
2022-10-26T09:56:13.351Z,1.73
2022-10-26T09:58:48.281Z,1.50
2022-10-26T10:01:35.596Z,1.55
2022-10-26T10:04:16.592Z,2.08
2022-10-26T10:06:48.420Z,2.22
2022-10-26T10:09:16.376Z,2.10
2022-10-26T10:11:55.041Z,2.35
2022-10-26T10:14:26.099Z,1.90
2022-10-26T10:16:59.915Z,1.93
2022-10-26T10:19:38.028Z,1.80
2022-10-26T10:22:19.735Z,1.73
2022-10-26T10:24:56.602Z,2.90
2022-10-26T10:27:24.756Z,1.88
2022-10-26T10:29:53.533Z,2.33
2022-10-26T10:32:35.348Z,2.00
2022-10-26T10:35:29.417Z,1.73
2022-10-26T10:37:56.473Z,2.53
2022-10-26T10:40:29.212Z,2.20
2022-10-26T10:43:05.040Z,1.65
2022-10-26T10:45:32.656Z,2.00
2022-10-26T10:48:16.448Z,2.40
2022-10-26T10:50:56.085Z,2.15
2022-10-26T10:53:25.648Z,2.13
2022-10-26T10:56:27.643Z,2.58
2022-10-26T10:59:48.461Z,2.00
2022-10-26T11:02:40.092Z,1.98
2022-10-26T11:05:27.372Z,2.50
2022-10-26T11:08:20.186Z,2.60
2022-10-26T11:10:52.334Z,3.60
2022-10-26T11:13:31.623Z,2.40
2022-10-26T11:16:03.962Z,2.22
2022-10-26T11:18:47.818Z,2.55
2022-10-26T11:21:22.619Z,2.53
2022-10-26T11:24:13.199Z,2.72
2022-10-26T11:26:58.332Z,2.20
2022-10-26T11:29:44.679Z,2.05
2022-10-26T11:32:29.012Z,1.70
2022-10-26T11:35:17.849Z,2.00
2022-10-26T11:37:48.203Z,1.83
2022-10-26T11:40:56.329Z,1.95
2022-10-26T11:43:45.910Z,1.90
2022-10-26T11:46:19.273Z,1.70
2022-10-26T11:49:15.575Z,1.90
2022-10-26T11:51:49.228Z,1.98
2022-10-26T11:54:25.895Z,2.10
2022-10-26T11:56:55.380Z,1.63
2022-10-26T11:59:30.778Z,1.85
2022-10-26T12:02:12.148Z,1.58
2022-10-26T12:04:41.451Z,1.73
2022-10-26T12:07:20.125Z,1.85
2022-10-26T12:09:46.877Z,1.65
2022-10-26T12:12:19.986Z,1.98
2022-10-26T12:15:03.313Z,1.98
2022-10-26T12:17:46.924Z,2.03
2022-10-26T12:20:47.727Z,1.92
2022-10-26T12:23:23.131Z,1.80
2022-10-26T12:26:28.394Z,1.73
2022-10-26T12:29:04.250Z,1.75
2022-10-26T12:31:37.084Z,1.80
2022-10-26T12:34:10.456Z,1.27
2022-10-26T12:36:55.592Z,1.65
2022-10-26T12:39:34.978Z,1.50
2022-10-26T12:42:04.636Z,1.50
2022-10-26T12:44:34.412Z,1.50
2022-10-26T12:47:01.119Z,2.08
2022-10-26T12:50:18.641Z,1.75
2022-10-26T12:53:04.891Z,1.80
2022-10-26T12:55:40.307Z,1.80
2022-10-26T12:58:44.635Z,1.65
2022-10-26T13:01:17.212Z,1.98
2022-10-26T13:04:25.307Z,1.65
2022-10-26T13:07:09.529Z,1.70
2022-10-26T13:09:37.294Z,1.50
2022-10-26T13:12:05.585Z,1.95
2022-10-26T13:14:41.114Z,1.42
2022-10-26T13:17:25.169Z,1.50
2022-10-26T13:20:03.728Z,1.48
2022-10-26T13:22:33.420Z,1.75
2022-10-26T13:25:05.995Z,1.63
2022-10-26T13:27:32.571Z,1.80
2022-10-26T13:30:05.518Z,1.40
2022-10-26T13:32:48.482Z,2.00
2022-10-26T13:35:16.444Z,2.30
2022-10-26T13:37:49.140Z,1.73
2022-10-26T13:40:27.738Z,1.83
2022-10-26T13:43:03.780Z,1.52
2022-10-26T13:45:48.916Z,1.80
2022-10-26T13:48:18.633Z,1.23
2022-10-26T13:50:51.956Z,1.30
2022-10-26T13:53:28.109Z,1.23
2022-10-26T13:56:20.177Z,1.40
2022-10-26T13:58:54.451Z,1.27
2022-10-26T14:01:25.233Z,1.83
2022-10-26T14:03:52.328Z,1.77
2022-10-26T14:06:35.855Z,1.30
2022-10-26T14:09:06.306Z,1.63
2022-10-26T14:11:44.084Z,1.60
2022-10-26T14:14:38.052Z,1.50
2022-10-26T14:17:05.551Z,1.77
2022-10-26T14:19:38.142Z,1.40
2022-10-26T14:22:05.209Z,1.48
2022-10-26T14:24:47.313Z,1.83
2022-10-26T14:27:26.123Z,1.77
2022-10-26T14:30:17.183Z,1.80
2022-10-26T14:32:41.244Z,1.65
2022-10-26T14:35:12.993Z,1.80
2022-10-26T14:37:54.089Z,1.80
2022-10-26T14:40:25.008Z,1.80
2022-10-26T14:43:00.408Z,1.67
2022-10-26T14:45:49.369Z,1.85
2022-10-26T14:48:35.466Z,1.50
2022-10-26T14:51:08.034Z,1.98
2022-10-26T14:53:49.707Z,1.77
2022-10-26T14:56:39.906Z,1.88
2022-10-26T14:59:24.090Z,1.50
2022-10-26T15:02:22.448Z,1.80
2022-10-26T15:05:02.887Z,2.15
2022-10-26T15:07:39.760Z,1.63
2022-10-26T15:10:26.645Z,2.03
2022-10-26T15:12:53.393Z,2.00
2022-10-26T15:17:59.598Z,2.00
2022-10-26T15:20:28.772Z,2.13
2022-10-26T15:22:58.316Z,2.10
2022-10-26T15:25:32.976Z,2.03
2022-10-26T15:28:47.126Z,1.88
2022-10-26T15:31:16.607Z,2.00
2022-10-26T15:34:03.270Z,1.90
2022-10-26T15:36:32.377Z,1.88
2022-10-26T15:38:59.621Z,1.92
2022-10-26T15:41:37.705Z,2.22
2022-10-26T15:44:14.437Z,2.17
2022-10-26T15:46:41.277Z,1.95
2022-10-26T15:49:14.544Z,2.53
2022-10-26T15:51:41.180Z,2.33
2022-10-26T15:54:09.115Z,3.28
2022-10-26T15:56:36.671Z,4.60
2022-10-26T15:59:03.463Z,4.47
2022-10-26T16:01:30.401Z,3.40
2022-10-26T16:03:57.289Z,2.55
2022-10-26T16:06:30.830Z,2.53
2022-10-26T16:09:00.293Z,2.85
2022-10-26T16:11:27.289Z,3.20
2022-10-26T16:13:56.082Z,3.15
2022-10-26T16:16:25.055Z,2.78
2022-10-26T16:19:11.919Z,2.75
2022-10-26T16:21:42.457Z,2.85
2022-10-26T16:24:11.675Z,3.00
2022-10-26T16:26:38.619Z,3.45
2022-10-26T16:29:05.264Z,3.80
2022-10-26T16:31:31.909Z,3.00
2022-10-26T16:34:01.681Z,3.05
2022-10-26T16:36:32.748Z,3.72
2022-10-26T16:38:59.614Z,3.22
2022-10-26T16:41:26.423Z,3.78
2022-10-26T16:43:53.083Z,2.70
2022-10-26T16:46:21.353Z,2.58
2022-10-26T16:48:49.509Z,2.70
2022-10-26T16:51:22.683Z,3.03
2022-10-26T16:53:51.821Z,2.28
2022-10-26T16:56:21.539Z,2.75
2022-10-26T16:58:48.570Z,3.13
2022-10-26T17:01:20.141Z,3.20
2022-10-26T17:06:14.769Z,2.50
2022-10-26T17:08:41.867Z,3.03
2022-10-26T17:11:14.363Z,2.28
2022-10-26T17:13:41.651Z,2.75
2022-10-26T17:16:12.577Z,2.95
2022-10-26T17:18:43.200Z,2.78
2022-10-26T17:21:11.228Z,2.88
2022-10-26T17:23:38.156Z,2.50
2022-10-26T17:26:06.801Z,3.42
2022-10-26T17:28:33.845Z,2.60
2022-10-26T17:31:08.438Z,3.13
2022-10-26T17:33:36.328Z,9.25
2022-10-26T17:36:05.198Z,5.35
2022-10-26T17:38:36.587Z,4.43
2022-10-26T17:41:05.845Z,5.45
2022-10-26T17:43:33.983Z,5.55
2022-10-26T17:46:09.753Z,5.32
2022-10-26T17:48:36.563Z,5.60
2022-10-26T17:51:05.391Z,4.80
2022-10-26T17:53:32.360Z,4.25
2022-10-26T17:56:03.614Z,6.38
2022-10-26T17:58:30.618Z,9.95
2022-10-26T18:01:02.196Z,6.93
2022-10-26T18:03:28.995Z,8.70
2022-10-26T18:05:55.766Z,8.10
2022-10-26T18:08:22.596Z,6.45
2022-10-26T18:10:50.868Z,8.40
2022-10-26T18:13:18.220Z,9.57
2022-10-26T18:15:45.717Z,9.32
2022-10-26T18:18:12.436Z,10.45
2022-10-26T18:20:39.239Z,10.00
2022-10-26T18:23:06.227Z,10.32
2022-10-26T18:25:33.798Z,8.30
2022-10-26T18:28:00.453Z,5.32
2022-10-26T18:30:27.157Z,7.10
2022-10-26T18:32:54.172Z,8.55
2022-10-26T18:35:21.623Z,9.13
2022-10-26T18:37:48.532Z,7.97
2022-10-26T18:40:15.825Z,9.27
2022-10-26T18:42:42.480Z,8.57
2022-10-26T18:45:09.443Z,9.07
2022-10-26T18:47:36.360Z,8.63
2022-10-26T18:50:04.177Z,7.32
2022-10-26T18:52:30.823Z,8.23
2022-10-26T18:54:57.660Z,8.30
2022-10-26T18:57:28.843Z,9.82
2022-10-26T18:59:55.669Z,11.15
2022-10-26T19:02:22.918Z,12.95
2022-10-26T19:04:53.097Z,8.57
2022-10-26T19:07:20.192Z,8.38
2022-10-26T19:09:46.787Z,7.55
2022-10-26T19:12:13.565Z,7.80
2022-10-26T19:14:40.203Z,7.05
2022-10-26T19:17:08.556Z,7.18
2022-10-26T19:19:35.237Z,11.65
2022-10-26T19:22:01.947Z,15.27
2022-10-26T19:24:28.658Z,10.52
2022-10-26T19:26:56.523Z,7.68
2022-10-26T19:29:23.193Z,5.97
2022-10-26T19:31:52.686Z,8.23
2022-10-26T19:34:19.503Z,7.30
2022-10-26T19:36:47.047Z,7.45
2022-10-26T19:39:15.458Z,5.95
2022-10-26T19:41:43.189Z,8.85
2022-10-26T19:44:11.647Z,7.10
2022-10-26T19:46:39.410Z,6.57
2022-10-26T19:49:06.671Z,8.13
2022-10-26T19:51:33.575Z,8.25
2022-10-26T19:54:03.722Z,7.35
2022-10-26T19:56:35.260Z,7.10
2022-10-26T19:59:02.862Z,8.73
2022-10-26T20:01:29.623Z,9.68
2022-10-26T20:03:57.155Z,10.68
2022-10-26T20:06:23.789Z,13.27
2022-10-26T20:08:50.702Z,14.25
2022-10-26T20:11:18.008Z,7.75
2022-10-26T20:13:46.109Z,8.40
2022-10-26T20:16:13.915Z,8.07
2022-10-26T20:18:44.088Z,9.90
2022-10-26T20:21:14.866Z,11.32
2022-10-26T20:23:42.419Z,9.52
2022-10-26T20:26:09.486Z,10.70
2022-10-26T20:28:36.963Z,9.27
2022-10-26T20:31:03.584Z,10.30
2022-10-26T20:33:30.187Z,8.73
2022-10-26T20:35:57.992Z,8.18
2022-10-26T20:38:25.268Z,7.88
2022-10-26T20:40:59.248Z,7.70
2022-10-26T20:43:27.133Z,8.95
2022-10-26T20:45:54.627Z,8.98
2022-10-26T20:48:22.070Z,8.00
2022-10-26T20:51:04.715Z,7.38
2022-10-26T20:53:34.280Z,9.13
2022-10-26T20:56:05.839Z,8.85
2022-10-26T20:58:39.746Z,17.63
2022-10-26T21:01:14.989Z,15.38
2022-10-26T21:03:41.672Z,11.88
2022-10-26T21:06:11.361Z,9.73
2022-10-26T21:08:38.249Z,7.78
2022-10-26T21:11:05.010Z,7.50
2022-10-26T21:13:38.247Z,10.27
2022-10-26T21:16:06.359Z,12.18
2022-10-26T21:18:33.667Z,12.55
2022-10-26T21:21:00.855Z,14.48
2022-10-26T21:23:35.925Z,12.57
2022-10-26T21:26:03.409Z,10.43
2022-10-26T21:28:39.063Z,12.30
2022-10-26T21:31:07.615Z,7.90
2022-10-26T21:33:34.587Z,10.73
2022-10-26T21:36:02.796Z,8.27
2022-10-26T21:38:30.468Z,7.13
2022-10-26T21:41:18.039Z,7.60
2022-10-26T21:43:47.382Z,7.28
2022-10-26T21:46:14.837Z,6.70
2022-10-26T21:48:41.934Z,7.93
2022-10-26T21:51:12.161Z,8.38
2022-10-26T21:53:39.416Z,6.47
2022-10-26T21:56:14.541Z,5.97
2022-10-26T21:58:41.243Z,6.78
2022-10-26T22:01:13.903Z,7.03
2022-10-26T22:03:41.866Z,6.20
2022-10-26T22:06:09.797Z,7.65
2022-10-26T22:08:37.130Z,9.60
2022-10-26T22:11:21.635Z,9.07
2022-10-26T22:13:50.451Z,9.48
2022-10-26T22:16:20.843Z,7.47
2022-10-26T22:18:48.767Z,6.45
2022-10-26T22:21:17.379Z,5.70
2022-10-26T22:23:45.885Z,7.55
2022-10-26T22:26:18.492Z,7.07
2022-10-26T22:28:47.288Z,8.90
2022-10-26T22:31:19.925Z,8.70
2022-10-26T22:33:50.921Z,7.50
2022-10-26T22:36:17.576Z,6.85
2022-10-26T22:38:44.760Z,6.97
2022-10-26T22:41:11.942Z,6.15
2022-10-26T22:43:38.802Z,6.13
2022-10-26T22:46:11.576Z,6.05
2022-10-26T22:48:38.792Z,5.40
2022-10-26T22:51:11.009Z,6.05
2022-10-26T22:53:38.277Z,5.85
2022-10-26T22:56:07.282Z,5.63
2022-10-26T22:58:37.551Z,5.18
2022-10-26T23:01:16.614Z,5.35
2022-10-26T23:03:44.094Z,5.43
2022-10-26T23:06:14.137Z,5.03
2022-10-26T23:08:40.968Z,5.10
2022-10-26T23:11:12.952Z,4.40
2022-10-26T23:16:08.647Z,5.63
2022-10-26T23:18:37.481Z,5.72
2022-10-26T23:21:05.570Z,4.63
2022-10-26T23:23:32.485Z,4.60
2022-10-26T23:26:07.166Z,5.95
2022-10-26T23:28:34.989Z,5.63
2022-10-26T23:31:02.091Z,4.70
2022-10-26T23:33:28.886Z,4.95
2022-10-26T23:35:55.562Z,6.03
2022-10-26T23:38:22.325Z,6.88
2022-10-26T23:40:53.727Z,7.03
2022-10-26T23:43:21.039Z,5.78
2022-10-26T23:45:47.925Z,6.40
2022-10-26T23:48:15.182Z,6.00
2022-10-26T23:50:46.306Z,5.38
2022-10-26T23:53:14.458Z,4.67
2022-10-26T23:55:43.563Z,5.50
2022-10-26T23:58:10.936Z,4.65
